sim
Sign-in with your pilot id or email,
or register
Callsign
Passwort

Schedule Details

Flight Number: OEO5887
Departure: Berlin Tegel Airport (EDDT) at 08:25
Arrival: Fuerteventura Airport (GCFV) at 13:55

Weather Information
Getting current METAR information for EDDT 212250Z 08004KT 050V110 CAVOK 12/M00 Q1019
Getting current METAR information for GCFV 212230Z AUTO 33007KT 300V360 9999 BKN027 19/13 Q1015

Schedule Frequency

Route Map